createdAt,value
2022-12-25T00:00:51.987Z,1.01
2022-12-25T00:03:55.314Z,0.80
2022-12-25T00:06:58.634Z,0.73
2022-12-25T00:10:02.191Z,0.56
2022-12-25T00:13:05.457Z,0.71
2022-12-25T00:16:10.673Z,0.46
2022-12-25T00:19:13.893Z,0.42
2022-12-25T00:22:17.218Z,0.30
2022-12-25T00:25:20.399Z,0.13
2022-12-25T00:28:24.920Z,0.02
2022-12-25T00:31:28.404Z,-0.24
2022-12-25T00:34:31.737Z,-0.16
2022-12-25T00:37:37.909Z,-0.17
2022-12-25T00:40:44.830Z,0.08
2022-12-25T00:43:47.978Z,0.26
2022-12-25T00:46:51.222Z,0.28
2022-12-25T00:49:54.447Z,0.51
2022-12-25T00:52:57.683Z,0.25
2022-12-25T00:56:06.196Z,0.25
2022-12-25T00:59:11.685Z,0.28
2022-12-25T01:02:14.967Z,0.16
2022-12-25T01:05:18.442Z,0.01
2022-12-25T01:08:21.643Z,-0.28
2022-12-25T01:11:24.852Z,-0.32
2022-12-25T01:14:28.028Z,-0.55
2022-12-25T01:17:31.265Z,-0.74
2022-12-25T01:20:34.450Z,-0.71
2022-12-25T01:23:37.804Z,-0.38
2022-12-25T01:26:41.010Z,-0.12
2022-12-25T01:29:44.296Z,-0.05
2022-12-25T01:32:47.487Z,-0.09
2022-12-25T01:35:50.719Z,0.02
2022-12-25T01:38:55.333Z,-0.05
2022-12-25T01:41:58.927Z,-0.38
2022-12-25T01:45:31.191Z,-0.92
2022-12-25T01:48:38.678Z,-0.81
2022-12-25T01:51:53.865Z,-0.63
2022-12-25T01:55:01.558Z,-0.58
2022-12-25T01:58:04.786Z,-0.91
2022-12-25T02:01:08.650Z,-0.47
2022-12-25T02:04:41.418Z,-0.43
2022-12-25T02:07:44.953Z,-0.74
2022-12-25T02:10:50.604Z,-1.13
2022-12-25T02:13:53.838Z,-1.15
2022-12-25T02:17:12.339Z,-0.82
2022-12-25T02:20:41.549Z,-1.08
2022-12-25T02:24:04.767Z,-0.77
2022-12-25T02:27:26.455Z,-1.18
2022-12-25T02:30:33.642Z,-1.18
2022-12-25T02:33:52.930Z,-1.13
2022-12-25T02:37:14.009Z,-1.07
2022-12-25T02:40:30.042Z,-1.11
2022-12-25T02:43:41.455Z,-0.95
2022-12-25T02:46:47.216Z,-0.73
2022-12-25T02:49:51.285Z,-0.82
2022-12-25T02:52:57.085Z,-0.93
2022-12-25T02:56:00.713Z,-1.13
2022-12-25T02:59:05.891Z,-1.11
2022-12-25T03:02:09.693Z,-0.84
2022-12-25T03:05:15.909Z,-1.19
2022-12-25T03:08:25.572Z,-1.17
2022-12-25T03:11:31.718Z,-1.18
2022-12-25T03:14:38.319Z,-1.32
2022-12-25T03:17:41.598Z,-1.44
2022-12-25T03:20:44.834Z,-1.16
2022-12-25T03:23:55.800Z,-1.18
2022-12-25T03:26:59.075Z,-1.04
2022-12-25T03:30:02.795Z,-1.08
2022-12-25T03:33:45.149Z,-1.45
2022-12-25T03:37:15.573Z,-1.18
2022-12-25T03:40:51.658Z,-1.11
2022-12-25T03:44:09.455Z,-1.38
2022-12-25T03:47:20.151Z,-2.07
2022-12-25T03:50:26.890Z,-1.86
2022-12-25T03:53:36.946Z,-2.01
2022-12-25T03:56:43.807Z,-1.99
2022-12-25T03:59:47.115Z,-1.84
2022-12-25T04:02:50.430Z,-1.59
2022-12-25T04:05:53.716Z,-1.36
2022-12-25T04:08:57.199Z,-1.33
2022-12-25T04:12:02.787Z,-1.29
2022-12-25T04:15:06.856Z,-1.28
2022-12-25T04:18:10.047Z,-1.30
2022-12-25T04:21:13.451Z,-1.72
2022-12-25T04:24:16.659Z,-2.09
2022-12-25T04:27:20.067Z,-1.89
2022-12-25T04:30:23.430Z,-1.69
2022-12-25T04:33:26.773Z,-1.61
2022-12-25T04:36:30.140Z,-1.60
2022-12-25T04:39:33.584Z,-1.69
2022-12-25T04:42:36.740Z,-1.57
2022-12-25T04:45:40.106Z,-1.45
2022-12-25T04:48:43.973Z,-1.84
2022-12-25T04:51:47.155Z,-1.83
2022-12-25T04:54:50.486Z,-1.99
2022-12-25T04:57:53.855Z,-2.17
2022-12-25T05:01:00.625Z,-2.26
2022-12-25T05:04:04.022Z,-2.02
2022-12-25T05:07:07.244Z,-2.13
2022-12-25T05:10:10.824Z,-2.17
2022-12-25T05:13:13.987Z,-2.05
2022-12-25T05:16:19.721Z,-2.13
2022-12-25T05:19:23.183Z,-2.13
2022-12-25T05:22:28.723Z,-1.89
2022-12-25T05:25:32.305Z,-1.91
2022-12-25T05:28:36.616Z,-1.98
2022-12-25T05:31:40.486Z,-2.00
2022-12-25T05:34:43.733Z,-2.18
2022-12-25T05:37:46.928Z,-2.24
2022-12-25T05:40:52.365Z,-2.53
2022-12-25T05:43:55.537Z,-2.29
2022-12-25T05:46:58.778Z,-2.64
2022-12-25T05:50:01.995Z,-2.89
2022-12-25T05:53:08.562Z,-2.86
2022-12-25T05:56:12.224Z,-2.63
2022-12-25T05:59:15.394Z,-2.79
2022-12-25T06:02:18.709Z,-2.75
2022-12-25T06:05:22.566Z,-2.48
2022-12-25T06:08:25.763Z,-2.33
2022-12-25T06:11:31.425Z,-2.60
2022-12-25T06:14:34.700Z,-2.46
2022-12-25T06:17:38.004Z,-2.43
2022-12-25T06:20:42.164Z,-2.29
2022-12-25T06:23:45.709Z,-2.65
2022-12-25T06:26:48.991Z,-2.81
2022-12-25T06:29:52.571Z,-2.85
2022-12-25T06:32:55.838Z,-2.94
2022-12-25T06:35:59.010Z,-2.71
2022-12-25T06:39:02.283Z,-2.37
2022-12-25T06:42:05.554Z,-2.30
2022-12-25T06:45:09.316Z,-2.23
2022-12-25T06:48:12.745Z,-2.36
2022-12-25T06:51:34.487Z,-2.55
2022-12-25T06:54:37.754Z,-2.71
2022-12-25T06:57:40.925Z,-2.95
2022-12-25T07:00:44.211Z,-3.04
2022-12-25T07:03:48.739Z,-2.83
2022-12-25T07:06:54.274Z,-2.62
2022-12-25T07:09:57.627Z,-2.73
2022-12-25T07:13:01.998Z,-2.60
2022-12-25T07:16:07.835Z,-2.69
2022-12-25T07:19:11.484Z,-2.80
2022-12-25T07:22:15.560Z,-2.39
2022-12-25T07:25:19.802Z,-2.41
2022-12-25T07:28:23.198Z,-2.62
2022-12-25T07:31:26.467Z,-2.98
2022-12-25T07:34:29.995Z,-3.00
2022-12-25T07:37:33.182Z,-2.98
2022-12-25T07:40:36.495Z,-3.21
2022-12-25T07:43:39.917Z,-3.17
2022-12-25T07:46:43.372Z,-2.77
2022-12-25T07:49:46.557Z,-2.76
2022-12-25T07:52:49.854Z,-3.18
2022-12-25T07:56:06.259Z,-2.96
2022-12-25T07:59:09.439Z,-2.69
2022-12-25T08:02:12.816Z,-2.69
2022-12-25T08:05:16.191Z,-2.69
2022-12-25T08:08:19.448Z,-3.02
2022-12-25T08:11:22.810Z,-2.70
2022-12-25T08:14:26.321Z,-2.67
2022-12-25T08:17:29.575Z,-2.50
2022-12-25T08:20:32.802Z,-2.41
2022-12-25T08:23:37.861Z,-2.35
2022-12-25T08:26:41.163Z,-2.90
2022-12-25T08:29:47.335Z,-3.08
2022-12-25T08:32:52.823Z,-3.05
2022-12-25T08:35:59.968Z,-2.78
2022-12-25T08:39:03.641Z,-2.75
2022-12-25T08:42:06.963Z,-2.77
2022-12-25T08:45:10.916Z,-2.85
2022-12-25T08:48:14.345Z,-3.04
2022-12-25T08:51:22.543Z,-2.79
2022-12-25T08:54:25.738Z,-2.94
2022-12-25T08:57:31.258Z,-3.30
2022-12-25T09:00:34.520Z,-3.21
2022-12-25T09:03:37.940Z,-3.21
2022-12-25T09:06:43.158Z,-3.19
2022-12-25T09:09:49.690Z,-3.49
2022-12-25T09:12:52.960Z,-3.56
2022-12-25T09:15:56.338Z,-3.44
2022-12-25T09:18:59.533Z,-3.68
2022-12-25T09:22:02.845Z,-3.84
2022-12-25T09:25:06.540Z,-3.65
2022-12-25T09:28:09.803Z,-3.67
2022-12-25T09:31:13.456Z,-3.88
2022-12-25T09:34:19.212Z,-3.70
2022-12-25T09:37:23.593Z,-3.65
2022-12-25T09:40:30.043Z,-3.44
2022-12-25T09:43:39.796Z,-3.45
2022-12-25T09:46:53.691Z,-3.52
2022-12-25T09:50:20.619Z,-3.69
2022-12-25T09:53:29.261Z,-3.67
2022-12-25T09:56:33.717Z,-3.75
2022-12-25T09:59:36.997Z,-3.46
2022-12-25T10:02:54.064Z,-3.41
2022-12-25T10:06:13.069Z,-3.17
2022-12-25T10:09:31.240Z,-3.14
2022-12-25T10:13:16.462Z,-3.51
2022-12-25T10:16:51.558Z,-3.55
2022-12-25T10:20:17.583Z,-3.18
2022-12-25T10:23:28.604Z,-3.24
2022-12-25T10:26:34.298Z,-3.37
2022-12-25T10:29:40.090Z,-3.55
2022-12-25T10:32:44.174Z,-3.46
2022-12-25T10:35:48.631Z,-3.47
2022-12-25T10:38:51.989Z,-3.49
2022-12-25T10:42:39.328Z,-3.50
2022-12-25T10:45:46.947Z,-3.31
2022-12-25T10:48:54.131Z,-3.10
2022-12-25T10:51:58.076Z,-3.06
2022-12-25T10:55:15.363Z,-3.10
2022-12-25T10:58:21.980Z,-3.24
2022-12-25T11:01:31.060Z,-3.48
2022-12-25T11:04:37.679Z,-3.54
2022-12-25T11:07:46.720Z,-3.47
2022-12-25T11:10:55.038Z,-3.41
2022-12-25T11:14:00.706Z,-3.42
2022-12-25T11:17:11.062Z,-3.29
2022-12-25T11:20:17.870Z,-3.41
2022-12-25T11:23:23.219Z,-3.68
2022-12-25T11:26:28.627Z,-3.47
2022-12-25T11:29:53.881Z,-3.56
2022-12-25T11:33:03.754Z,-3.68
2022-12-25T11:36:26.309Z,-3.39
2022-12-25T11:39:36.419Z,-3.42
2022-12-25T11:42:45.005Z,-3.43
2022-12-25T11:46:13.110Z,-3.52
2022-12-25T11:49:19.965Z,-3.55
2022-12-25T11:52:25.064Z,-3.82
2022-12-25T11:55:51.728Z,-3.64
2022-12-25T11:58:55.835Z,-3.47
2022-12-25T12:02:23.566Z,-3.55
2022-12-25T12:05:39.668Z,-3.71
2022-12-25T12:08:44.081Z,-3.77
2022-12-25T12:11:56.410Z,-3.97
2022-12-25T12:15:16.979Z,-4.18
2022-12-25T12:18:30.471Z,-4.12
2022-12-25T12:21:33.728Z,-3.71
2022-12-25T12:24:40.757Z,-3.52
2022-12-25T12:27:45.413Z,-3.63
2022-12-25T12:31:05.152Z,-3.84
2022-12-25T12:34:15.271Z,-3.59
2022-12-25T12:37:25.195Z,-3.74
2022-12-25T12:40:39.545Z,-3.84
2022-12-25T12:44:00.250Z,-4.05
2022-12-25T12:47:03.652Z,-4.12
2022-12-25T12:50:09.110Z,-4.14
2022-12-25T12:53:24.710Z,-4.16
2022-12-25T12:56:27.892Z,-4.27
2022-12-25T12:59:41.125Z,-4.17
2022-12-25T13:03:09.755Z,-4.18
2022-12-25T13:06:40.088Z,-4.14
2022-12-25T13:09:57.195Z,-4.06
2022-12-25T13:13:31.516Z,-4.13
2022-12-25T13:16:46.122Z,-4.15
2022-12-25T13:19:56.396Z,-3.99
2022-12-25T13:22:59.621Z,-3.93
2022-12-25T13:26:04.439Z,-3.98
2022-12-25T13:29:11.492Z,-3.72
2022-12-25T13:32:28.047Z,-3.87
2022-12-25T13:35:33.872Z,-3.67
2022-12-25T13:38:37.103Z,-3.53
2022-12-25T13:41:49.151Z,-3.36
2022-12-25T13:45:00.252Z,-3.21
2022-12-25T13:48:16.355Z,-3.20
2022-12-25T13:51:21.524Z,-3.08
2022-12-25T13:54:27.428Z,-2.91
2022-12-25T13:57:54.841Z,-3.00
2022-12-25T14:00:59.825Z,-2.68
2022-12-25T14:04:04.281Z,-2.67
2022-12-25T14:07:11.496Z,-2.44
2022-12-25T14:10:14.861Z,-2.32
2022-12-25T14:13:20.118Z,-2.29
2022-12-25T14:16:23.575Z,-2.33
2022-12-25T14:19:34.428Z,-2.14
2022-12-25T14:22:37.802Z,-2.07
2022-12-25T14:25:48.269Z,-1.96
2022-12-25T14:29:28.346Z,-2.03
2022-12-25T14:32:32.676Z,-1.76
2022-12-25T14:35:36.348Z,-1.78
2022-12-25T14:38:39.709Z,-1.86
2022-12-25T14:41:43.014Z,-1.64
2022-12-25T14:45:03.914Z,-1.56
2022-12-25T14:48:25.578Z,-1.33
2022-12-25T14:51:29.797Z,-1.68
2022-12-25T14:54:33.126Z,-1.21
2022-12-25T14:57:40.219Z,-1.07
2022-12-25T15:00:43.446Z,-0.91
2022-12-25T15:03:48.151Z,-1.02
2022-12-25T15:07:03.067Z,-0.64
2022-12-25T15:10:57.510Z,-0.80
2022-12-25T15:13:35.171Z,-0.85
2022-12-25T15:16:44.533Z,-0.37
2022-12-25T15:19:47.905Z,-0.51
2022-12-25T15:23:17.760Z,-0.57
2022-12-25T15:26:15.160Z,0.03
2022-12-25T15:29:32.192Z,0.16
2022-12-25T15:32:42.813Z,0.22
2022-12-25T15:35:46.217Z,0.24
2022-12-25T15:38:49.699Z,0.19
2022-12-25T15:41:52.996Z,0.30
2022-12-25T15:44:56.175Z,0.69
2022-12-25T15:48:00.099Z,0.94
2022-12-25T15:51:05.258Z,0.90
2022-12-25T15:54:09.271Z,0.78
2022-12-25T15:57:21.066Z,1.00
2022-12-25T16:00:24.268Z,1.00
2022-12-25T16:03:27.723Z,1.19
2022-12-25T16:06:30.940Z,1.33
2022-12-25T16:09:34.252Z,1.04
2022-12-25T16:12:37.459Z,1.08
2022-12-25T16:15:40.941Z,1.65
2022-12-25T16:18:47.543Z,2.26
2022-12-25T16:21:51.356Z,2.31
2022-12-25T16:24:54.812Z,2.13
2022-12-25T16:27:58.032Z,1.80
2022-12-25T16:31:01.578Z,2.10
2022-12-25T16:34:06.301Z,1.96
2022-12-25T16:37:09.804Z,2.17
2022-12-25T16:40:13.633Z,2.79
2022-12-25T16:43:23.615Z,2.69
2022-12-25T16:46:28.366Z,3.11
2022-12-25T16:49:31.736Z,3.05
2022-12-25T16:52:35.961Z,2.69
2022-12-25T16:55:39.593Z,3.15
2022-12-25T16:58:45.763Z,2.94
2022-12-25T17:01:49.151Z,3.36
2022-12-25T17:04:52.452Z,3.54
2022-12-25T17:07:55.856Z,3.27
2022-12-25T17:10:59.156Z,3.29
2022-12-25T17:14:03.970Z,3.62
2022-12-25T17:17:07.202Z,3.67
2022-12-25T17:20:10.981Z,3.89
2022-12-25T17:23:14.369Z,4.32
2022-12-25T17:26:17.895Z,4.19
2022-12-25T17:29:22.641Z,4.46
2022-12-25T17:32:26.245Z,4.32
2022-12-25T17:35:29.539Z,4.38
2022-12-25T17:38:33.697Z,4.43
2022-12-25T17:41:36.942Z,4.30
2022-12-25T17:44:40.176Z,4.37
2022-12-25T17:47:43.416Z,4.83
2022-12-25T17:50:47.242Z,4.77
2022-12-25T17:53:52.784Z,4.75
2022-12-25T17:56:56.035Z,4.59
2022-12-25T17:59:59.227Z,4.74
2022-12-25T18:03:09.053Z,5.31
2022-12-25T18:06:18.120Z,4.88
2022-12-25T18:09:21.267Z,5.31
2022-12-25T18:12:24.460Z,5.56
2022-12-25T18:15:30.183Z,5.53
2022-12-25T18:18:33.809Z,5.55
2022-12-25T18:21:37.202Z,6.03
2022-12-25T18:24:40.535Z,5.98
2022-12-25T18:27:43.735Z,5.95
2022-12-25T18:30:49.428Z,6.11
2022-12-25T18:33:53.516Z,6.69
2022-12-25T18:36:56.901Z,6.67
2022-12-25T18:40:00.319Z,6.49
2022-12-25T18:43:03.820Z,6.69
2022-12-25T18:46:07.563Z,6.80
2022-12-25T18:49:10.984Z,7.28
2022-12-25T18:52:47.894Z,7.25
2022-12-25T18:55:37.785Z,7.70
2022-12-25T18:58:40.967Z,7.67
2022-12-25T19:01:44.440Z,7.67
2022-12-25T19:04:50.177Z,8.06
2022-12-25T19:07:53.747Z,7.54
2022-12-25T19:10:56.916Z,7.70
2022-12-25T19:14:00.137Z,8.04
2022-12-25T19:17:06.395Z,7.76
2022-12-25T19:20:10.135Z,7.45
2022-12-25T19:23:13.266Z,7.20
2022-12-25T19:26:16.597Z,7.20
2022-12-25T19:29:19.837Z,6.86
2022-12-25T19:32:23.157Z,7.45
2022-12-25T19:35:26.487Z,7.08
2022-12-25T19:38:29.817Z,7.34
2022-12-25T19:41:33.477Z,7.25
2022-12-25T19:44:36.761Z,6.91
2022-12-25T19:47:40.122Z,7.41
2022-12-25T19:50:43.730Z,7.58
2022-12-25T19:53:47.786Z,7.13
2022-12-25T19:56:51.172Z,7.33
2022-12-25T19:59:54.505Z,7.46
2022-12-25T20:03:00.456Z,7.92
2022-12-25T20:06:05.379Z,7.41
2022-12-25T20:09:12.123Z,7.29
2022-12-25T20:12:17.618Z,6.87
2022-12-25T20:15:21.060Z,7.05
2022-12-25T20:18:24.495Z,7.72
2022-12-25T20:21:27.886Z,8.23
2022-12-25T20:24:31.894Z,8.22
2022-12-25T20:27:35.391Z,7.96
2022-12-25T20:30:41.888Z,8.18
2022-12-25T20:33:45.633Z,8.57
2022-12-25T20:36:51.312Z,8.30
2022-12-25T20:39:54.649Z,7.89
2022-12-25T20:42:57.823Z,7.81
2022-12-25T20:46:01.136Z,8.55
2022-12-25T20:49:04.986Z,8.60
2022-12-25T20:52:08.572Z,9.08
2022-12-25T20:55:11.851Z,9.41
2022-12-25T20:58:16.250Z,9.29
2022-12-25T21:01:19.577Z,9.67
2022-12-25T21:04:25.759Z,8.84
2022-12-25T21:07:28.913Z,9.02
2022-12-25T21:10:33.315Z,8.83
2022-12-25T21:13:39.047Z,8.47
2022-12-25T21:16:42.405Z,8.02
2022-12-25T21:19:48.088Z,7.98
2022-12-25T21:22:51.384Z,7.71
2022-12-25T21:25:54.975Z,8.06
2022-12-25T21:29:00.340Z,7.84
2022-12-25T21:32:03.916Z,7.90
2022-12-25T21:35:07.410Z,8.37
2022-12-25T21:38:10.566Z,8.38
2022-12-25T21:41:15.093Z,7.96
2022-12-25T21:44:19.346Z,7.80
2022-12-25T21:47:22.536Z,7.94
2022-12-25T21:50:25.705Z,8.54
2022-12-25T21:53:28.895Z,7.94
2022-12-25T21:56:38.354Z,8.03
2022-12-25T21:59:44.974Z,8.40
2022-12-25T22:02:51.473Z,8.94
2022-12-25T22:05:57.682Z,8.76
2022-12-25T22:09:00.895Z,7.88
2022-12-25T22:12:04.730Z,8.15
2022-12-25T22:15:13.805Z,8.15
2022-12-25T22:18:17.162Z,8.08
2022-12-25T22:21:21.279Z,7.77
2022-12-25T22:24:24.590Z,7.78
2022-12-25T22:27:32.238Z,7.71
2022-12-25T22:30:35.115Z,7.31
2022-12-25T22:33:38.326Z,7.28
2022-12-25T22:36:41.612Z,7.27
2022-12-25T22:39:45.397Z,6.89
2022-12-25T22:42:50.987Z,6.83
2022-12-25T22:45:54.157Z,6.64
2022-12-25T22:48:57.736Z,6.60
2022-12-25T22:52:01.045Z,6.55
2022-12-25T22:55:05.569Z,6.39
2022-12-25T22:58:08.894Z,6.42
2022-12-25T23:01:12.626Z,6.25
2022-12-25T23:04:15.808Z,6.18
2022-12-25T23:07:22.269Z,6.26
2022-12-25T23:10:25.527Z,6.18
2022-12-25T23:13:28.908Z,5.84
2022-12-25T23:16:32.138Z,5.44
2022-12-25T23:19:35.476Z,5.16
2022-12-25T23:22:38.696Z,5.15
2022-12-25T23:25:41.944Z,4.88
2022-12-25T23:28:45.349Z,5.06
2022-12-25T23:31:48.663Z,5.09
2022-12-25T23:34:53.130Z,4.59
2022-12-25T23:37:56.501Z,4.16
2022-12-25T23:40:59.890Z,4.36
2022-12-25T23:44:03.215Z,4.47
2022-12-25T23:47:06.462Z,4.52
2022-12-25T23:50:09.989Z,4.21
2022-12-25T23:53:13.245Z,4.22
2022-12-25T23:56:16.710Z,4.31
2022-12-25T23:59:20.085Z,4.08
